createdAt,value
2022-11-13T00:02:50.914Z,102129.72
2022-11-13T00:08:10.943Z,102129.41
2022-11-13T00:13:32.309Z,102128.53
2022-11-13T00:18:52.733Z,102124.44
2022-11-13T00:24:12.740Z,102122.34
2022-11-13T00:29:33.046Z,102114.38
2022-11-13T00:34:53.186Z,102103.81
2022-11-13T00:40:13.580Z,102105.28
2022-11-13T00:45:33.795Z,102106.09
2022-11-13T00:50:54.252Z,102107.81
2022-11-13T00:56:14.561Z,102094.13
2022-11-13T01:01:34.813Z,102090.19
2022-11-13T01:06:54.677Z,102091.00
2022-11-13T01:12:14.653Z,102083.28
2022-11-13T01:17:35.177Z,102088.13
2022-11-13T01:22:55.179Z,102076.97
2022-11-13T01:28:15.344Z,102073.72
2022-11-13T01:33:35.944Z,102061.56
2022-11-13T01:38:56.344Z,102059.22
2022-11-13T01:44:18.791Z,102057.44
2022-11-13T01:49:41.492Z,102056.72
2022-11-13T01:55:10.766Z,102054.84
2022-11-13T02:00:30.878Z,102055.56
2022-11-13T02:05:51.599Z,102053.88
2022-11-13T02:11:12.740Z,102049.75
2022-11-13T02:16:35.897Z,102028.34
2022-11-13T02:22:33.774Z,102030.94
2022-11-13T02:27:54.077Z,102018.66
2022-11-13T02:33:32.228Z,102015.00
2022-11-13T02:38:54.256Z,102013.47
2022-11-13T02:44:14.566Z,102006.25
2022-11-13T02:49:34.902Z,102001.75
2022-11-13T02:54:55.335Z,101985.66
2022-11-13T03:00:16.166Z,101984.47
2022-11-13T03:05:36.459Z,101987.69
2022-11-13T03:10:56.552Z,101970.88
2022-11-13T03:16:22.002Z,101967.31
2022-11-13T03:21:43.224Z,101986.13
2022-11-13T03:27:03.421Z,101979.47
2022-11-13T03:32:23.718Z,101986.16
2022-11-13T03:37:43.576Z,101984.72
2022-11-13T03:43:03.750Z,101985.91
2022-11-13T03:48:23.912Z,101983.88
2022-11-13T03:53:44.133Z,101981.50
2022-11-13T03:59:04.447Z,101979.97
2022-11-13T04:04:24.797Z,101975.47
2022-11-13T04:09:45.059Z,101981.25
2022-11-13T04:15:06.024Z,101970.19
2022-11-13T04:20:26.645Z,101976.59
2022-11-13T04:25:48.868Z,101964.59
2022-11-13T04:31:09.131Z,101958.06
2022-11-13T04:36:29.224Z,101954.53
2022-11-13T04:41:54.122Z,101942.59
2022-11-13T04:47:15.357Z,101933.59
2022-11-13T04:52:35.581Z,101932.16
2022-11-13T04:57:55.765Z,101929.97
2022-11-13T05:03:16.042Z,101912.06
2022-11-13T05:08:36.406Z,101920.84
2022-11-13T05:14:00.692Z,101912.22
2022-11-13T05:19:23.209Z,101906.09
2022-11-13T05:24:43.370Z,101902.56
2022-11-13T05:30:03.940Z,101900.34
2022-11-13T05:35:23.867Z,101898.41
2022-11-13T05:40:44.115Z,101890.22
2022-11-13T05:46:07.938Z,101895.03
2022-11-13T05:51:30.852Z,101881.50
2022-11-13T05:56:50.870Z,101881.88
2022-11-13T06:02:11.256Z,101868.72
2022-11-13T06:07:31.381Z,101863.00
2022-11-13T06:12:51.092Z,101858.75
2022-11-13T06:18:11.504Z,101851.94
2022-11-13T06:23:36.682Z,101841.81
2022-11-13T06:28:57.375Z,101840.50
2022-11-13T06:34:17.527Z,101839.41
2022-11-13T06:39:37.839Z,101830.91
2022-11-13T06:44:58.288Z,101825.72
2022-11-13T06:50:18.616Z,101827.69
2022-11-13T06:55:47.532Z,101823.72
2022-11-13T07:01:18.145Z,101829.25
2022-11-13T07:06:40.540Z,101824.59
2022-11-13T07:12:00.614Z,101824.34
2022-11-13T07:17:20.664Z,101835.94
2022-11-13T07:22:40.652Z,101828.16
2022-11-13T07:28:00.717Z,101833.16
2022-11-13T07:33:20.713Z,101828.38
2022-11-13T07:38:40.693Z,101825.75
2022-11-13T07:44:01.900Z,101820.00
2022-11-13T07:49:22.785Z,101809.94
2022-11-13T07:54:42.960Z,101803.50
2022-11-13T08:00:03.790Z,101800.31
2022-11-13T08:05:23.988Z,101802.75
2022-11-13T08:10:43.885Z,101802.41
2022-11-13T08:16:04.440Z,101807.66
2022-11-13T08:21:24.912Z,101809.47
2022-11-13T08:26:45.211Z,101805.16
2022-11-13T08:32:05.823Z,101802.00
2022-11-13T08:37:25.962Z,101795.44
2022-11-13T08:42:45.926Z,101787.31
2022-11-13T08:48:06.475Z,101777.22
2022-11-13T08:53:26.618Z,101772.81
2022-11-13T08:58:47.068Z,101760.59
2022-11-13T09:04:08.297Z,101766.16
2022-11-13T09:09:28.153Z,101760.88
2022-11-13T09:14:48.287Z,101765.63
2022-11-13T09:20:13.525Z,101760.84
2022-11-13T09:25:37.789Z,101760.75
2022-11-13T09:30:58.273Z,101762.56
2022-11-13T09:36:18.453Z,101761.34
2022-11-13T09:41:45.204Z,101760.34
2022-11-13T09:47:10.283Z,101749.19
2022-11-13T09:52:35.917Z,101755.94
2022-11-13T09:58:04.958Z,101749.84
2022-11-13T10:04:00.631Z,101749.00
2022-11-13T10:09:54.351Z,101748.59
2022-11-13T10:15:17.371Z,101752.47
2022-11-13T10:20:43.347Z,101742.38
2022-11-13T10:26:21.105Z,101737.53
2022-11-13T10:31:49.660Z,101733.19
2022-11-13T10:37:36.306Z,101721.38
2022-11-13T10:43:14.521Z,101709.13
2022-11-13T10:48:36.680Z,101702.00
2022-11-13T10:53:59.015Z,101695.50
2022-11-13T10:59:19.908Z,101683.97
2022-11-13T11:04:40.222Z,101677.28
2022-11-13T11:10:00.518Z,101671.66
2022-11-13T11:15:27.419Z,101654.56
2022-11-13T11:20:57.797Z,101641.00
2022-11-13T11:26:26.754Z,101631.69
2022-11-13T11:32:00.951Z,101621.50
2022-11-13T11:37:25.175Z,101613.38
2022-11-13T11:42:51.713Z,101609.28
2022-11-13T11:48:26.010Z,101597.31
2022-11-13T11:54:05.060Z,101584.94
2022-11-13T11:59:55.429Z,101578.75
2022-11-13T12:05:27.249Z,101567.84
2022-11-13T12:11:22.096Z,101560.97
2022-11-13T12:16:54.154Z,101541.03
2022-11-13T12:22:21.342Z,101533.75
2022-11-13T12:28:04.545Z,101517.28
2022-11-13T12:33:30.811Z,101506.22
2022-11-13T12:39:19.746Z,101492.69
2022-11-13T12:44:50.195Z,101490.25
2022-11-13T12:50:32.475Z,101494.78
2022-11-13T12:55:59.296Z,101488.19
2022-11-13T13:01:21.769Z,101479.59
2022-11-13T13:07:09.034Z,101469.84
2022-11-13T13:12:57.165Z,101469.72
2022-11-13T13:18:17.568Z,101468.38
2022-11-13T13:23:39.939Z,101454.88
2022-11-13T13:29:21.384Z,101441.94
2022-11-13T13:35:19.350Z,101433.25
2022-11-13T13:40:57.695Z,101432.44
2022-11-13T13:46:20.189Z,101417.66
2022-11-13T13:51:46.449Z,101407.94
2022-11-13T13:57:11.499Z,101402.72
2022-11-13T14:02:31.585Z,101392.06
2022-11-13T14:07:51.465Z,101379.44
2022-11-13T14:13:13.555Z,101381.75
2022-11-13T14:18:35.151Z,101365.63
2022-11-13T14:23:55.273Z,101369.75
2022-11-13T14:29:33.546Z,101348.06
2022-11-13T14:34:56.628Z,101343.16
2022-11-13T14:40:26.811Z,101342.94
2022-11-13T14:45:59.337Z,101346.66
2022-11-13T14:51:29.403Z,101348.34
2022-11-13T14:56:49.463Z,101347.41
2022-11-13T15:02:11.519Z,101342.28
2022-11-13T15:07:34.088Z,101342.97
2022-11-13T15:12:54.426Z,101338.22
2022-11-13T15:18:19.732Z,101340.69
2022-11-13T15:23:39.626Z,101326.63
2022-11-13T15:28:59.631Z,101313.97
2022-11-13T15:34:19.799Z,101312.09
2022-11-13T15:39:40.140Z,101303.97
2022-11-13T15:45:00.283Z,101307.06
2022-11-13T15:50:20.576Z,101306.94
2022-11-13T15:55:41.697Z,101309.66
2022-11-13T16:01:02.019Z,101297.94
2022-11-13T16:06:23.783Z,101300.72
2022-11-13T16:11:44.156Z,101288.44
2022-11-13T16:17:11.709Z,101274.16
2022-11-13T16:22:31.695Z,101275.50
2022-11-13T16:27:51.837Z,101274.34
2022-11-13T16:33:12.576Z,101262.41
2022-11-13T16:38:32.487Z,101265.16
2022-11-13T16:43:52.347Z,101255.97
2022-11-13T16:49:14.182Z,101253.28
2022-11-13T16:54:34.119Z,101241.22
2022-11-13T16:59:54.357Z,101235.22
2022-11-13T17:05:17.960Z,101240.16
2022-11-13T17:10:38.210Z,101234.19
2022-11-13T17:16:00.814Z,101229.81
2022-11-13T17:21:23.563Z,101230.81
2022-11-13T17:26:43.788Z,101235.31
2022-11-13T17:32:03.758Z,101229.78
2022-11-13T17:37:25.358Z,101230.94
2022-11-13T17:42:45.400Z,101220.22
2022-11-13T17:48:05.572Z,101226.03
2022-11-13T17:53:25.887Z,101232.19
2022-11-13T17:58:46.755Z,101236.59
2022-11-13T18:04:07.179Z,101232.38
2022-11-13T18:09:27.577Z,101230.41
2022-11-13T18:14:47.910Z,101232.03
2022-11-13T18:20:08.628Z,101226.53
2022-11-13T18:25:29.218Z,101221.16
2022-11-13T18:30:55.076Z,101223.69
2022-11-13T18:36:17.052Z,101214.16
2022-11-13T18:41:37.265Z,101223.22
2022-11-13T18:46:57.449Z,101223.09
2022-11-13T18:52:17.784Z,101210.28
2022-11-13T18:57:37.993Z,101206.00
2022-11-13T19:02:58.063Z,101207.53
2022-11-13T19:08:18.385Z,101195.56
2022-11-13T19:13:41.058Z,101193.50
2022-11-13T19:19:04.276Z,101180.81
2022-11-13T19:24:24.570Z,101188.53
2022-11-13T19:29:44.577Z,101189.91
2022-11-13T19:35:05.042Z,101173.00
2022-11-13T19:40:25.274Z,101166.09
2022-11-13T19:45:45.318Z,101153.75
2022-11-13T19:51:08.565Z,101151.94
2022-11-13T19:56:28.896Z,101149.16
2022-11-13T20:01:49.306Z,101146.78
2022-11-13T20:07:09.541Z,101136.47
2022-11-13T20:12:30.678Z,101134.91
2022-11-13T20:17:50.873Z,101140.88
2022-11-13T20:23:11.137Z,101141.56
2022-11-13T20:28:32.383Z,101135.31
2022-11-13T20:33:55.470Z,101127.53
2022-11-13T20:39:15.565Z,101126.16
2022-11-13T20:44:35.506Z,101119.00
2022-11-13T20:49:55.457Z,101127.94
2022-11-13T20:55:15.893Z,101121.31
2022-11-13T21:00:35.984Z,101128.91
2022-11-13T21:05:56.128Z,101114.81
2022-11-13T21:11:19.046Z,101104.28
2022-11-13T21:16:39.185Z,101116.97
2022-11-13T21:21:59.146Z,101111.78
2022-11-13T21:27:19.571Z,101108.06
2022-11-13T21:32:39.895Z,101109.13
2022-11-13T21:38:04.376Z,101100.66
2022-11-13T21:43:25.027Z,101087.50
2022-11-13T21:48:45.751Z,101077.59
2022-11-13T21:54:06.945Z,101070.47
2022-11-13T21:59:26.959Z,101073.06
2022-11-13T22:04:46.945Z,101070.16
2022-11-13T22:10:08.691Z,101064.81
2022-11-13T22:15:28.893Z,101048.47
2022-11-13T22:20:49.319Z,101047.09
2022-11-13T22:26:14.867Z,101051.34
2022-11-13T22:31:36.123Z,101049.09
2022-11-13T22:36:56.108Z,101046.00
2022-11-13T22:42:16.010Z,101041.03
2022-11-13T22:47:38.132Z,101034.19
2022-11-13T22:52:58.461Z,101034.13
2022-11-13T22:58:18.401Z,101026.19
2022-11-13T23:03:40.540Z,101011.34
2022-11-13T23:09:01.103Z,101008.56
2022-11-13T23:14:21.447Z,101001.72
2022-11-13T23:19:41.376Z,100990.78
2022-11-13T23:25:01.649Z,100992.56
2022-11-13T23:30:21.439Z,100976.19
2022-11-13T23:35:42.225Z,100977.56
2022-11-13T23:41:02.614Z,100964.97
2022-11-13T23:46:22.909Z,100956.50
2022-11-13T23:51:42.899Z,100961.97
2022-11-13T23:57:02.990Z,100963.47
